Time;durP1;ratioP1;P1;durP2;ratioP2;P2;SDS_P1;SDS_P2;PMS_P1;PMS_P2;Temp;Humidity;BMP_temperature;BMP_pressure;BME280_temperature;BME280_humidity;BME280_pressure;Samples;Min_cycle;Max_cycle;Signal;HPM_P1;HPM_P2
2022/03/02 00:02:02;;;;;;;218.67;97.33;;;-1.00;99.90;;;;;;10442377;28;20199;-82
2022/03/02 00:07:24;;;;;;;215.57;92.47;;;-1.10;99.90;;;;;;10440924;28;20196;-80
2022/03/02 00:12:46;;;;;;;204.17;89.80;;;-1.10;99.90;;;;;;10441147;28;20192;-78
2022/03/02 00:18:27;;;;;;;184.67;79.03;;;-1.10;99.90;;;;;;10423817;28;20209;-75
2022/03/02 00:24:08;;;;;;;180.83;78.80;;;-1.20;99.90;;;;;;10440542;28;20232;-75
2022/03/02 00:29:30;;;;;;;180.90;77.03;;;-1.20;99.90;;;;;;10441372;28;20487;-75
2022/03/02 00:34:52;;;;;;;204.97;83.23;;;-1.30;99.90;;;;;;10439807;28;20285;-76
2022/03/02 00:40:14;;;;;;;201.00;86.33;;;-1.40;99.90;;;;;;10440893;28;20193;-74
2022/03/02 00:45:37;;;;;;;188.43;85.03;;;-1.50;99.90;;;;;;10439241;28;20191;-80
2022/03/02 00:51:18;;;;;;;209.30;88.33;;;-1.60;99.90;;;;;;10440352;28;20226;-81
2022/03/02 00:56:40;;;;;;;207.53;85.30;;;-1.60;99.90;;;;;;10440263;28;20223;-77
2022/03/02 01:02:02;;;;;;;199.40;85.07;;;-1.60;99.90;;;;;;10439999;28;20373;-76
2022/03/02 01:07:43;;;;;;;190.30;80.90;;;-1.60;99.90;;;;;;10438918;28;20254;-77
2022/03/02 01:13:05;;;;;;;187.70;76.87;;;-1.60;99.90;;;;;;10424626;28;20499;-75
2022/03/02 01:18:27;;;;;;;178.07;70.00;;;-1.70;99.90;;;;;;10435721;28;20246;-79
2022/03/02 01:24:09;;;;;;;182.47;72.23;;;-1.60;99.90;;;;;;10427283;28;20429;-80
2022/03/02 01:29:51;;;;;;;175.57;70.73;;;-1.70;99.90;;;;;;10438131;28;20220;-75
2022/03/02 01:35:14;;;;;;;170.83;68.27;;;-1.80;99.90;;;;;;10423663;28;20290;-76
2022/03/02 01:40:55;;;;;;;155.27;66.03;;;-1.90;99.90;;;;;;10437974;28;20208;-77
2022/03/02 01:46:18;;;;;;;144.80;63.53;;;-1.90;99.90;;;;;;10438189;28;20239;-79
2022/03/02 01:51:40;;;;;;;144.33;63.30;;;-2.00;99.90;;;;;;10437106;28;20489;-80
2022/03/02 01:57:04;;;;;;;155.73;64.73;;;-2.10;99.90;;;;;;10437480;28;20484;-81
2022/03/02 02:02:26;;;;;;;137.67;61.17;;;-2.00;99.90;;;;;;10436648;28;20196;-78
2022/03/02 02:08:07;;;;;;;137.77;59.47;;;-2.00;99.90;;;;;;10436733;28;20210;-81
2022/03/02 02:13:34;;;;;;;137.57;58.10;;;-2.10;99.90;;;;;;10436450;28;20220;-81
2022/03/02 02:18:56;;;;;;;149.33;63.47;;;-2.10;99.90;;;;;;10427136;28;20235;-76
2022/03/02 02:24:37;;;;;;;141.03;62.87;;;-2.20;99.90;;;;;;10437292;28;20263;-76
2022/03/02 02:29:59;;;;;;;149.57;66.27;;;-2.20;99.90;;;;;;10449844;28;20206;-75
2022/03/02 02:35:22;;;;;;;157.23;64.33;;;-2.30;99.90;;;;;;10419811;28;20234;-78
2022/03/02 02:41:03;;;;;;;151.03;63.47;;;-2.30;99.90;;;;;;10436979;28;20207;-80
2022/03/02 02:46:45;;;;;;;136.23;58.60;;;-2.40;99.90;;;;;;10435485;28;20226;-81
2022/03/02 02:52:07;;;;;;;145.00;61.47;;;-2.50;99.90;;;;;;10435798;28;20196;-81
2022/03/02 02:57:29;;;;;;;131.23;58.70;;;-2.50;99.90;;;;;;10436370;28;20438;-79
2022/03/02 03:02:52;;;;;;;133.93;60.33;;;-2.50;99.90;;;;;;10436490;28;20487;-82
2022/03/02 03:08:14;;;;;;;134.60;63.13;;;-2.60;99.90;;;;;;10435607;28;20199;-79
2022/03/02 03:13:55;;;;;;;145.90;62.13;;;-2.70;99.90;;;;;;10435726;28;20273;-76
2022/03/02 03:19:31;;;;;;;136.47;61.77;;;-2.60;99.90;;;;;;10429781;28;20445;-75
2022/03/02 03:25:13;;;;;;;135.43;62.50;;;-2.60;99.90;;;;;;10435738;28;20272;-75
2022/03/02 03:30:55;;;;;;;137.53;62.60;;;-2.60;99.90;;;;;;10435371;28;20500;-78
2022/03/02 03:36:17;;;;;;;142.30;62.33;;;-2.70;99.90;;;;;;10434460;28;20243;-79
2022/03/02 03:41:58;;;;;;;149.17;64.17;;;-2.70;99.90;;;;;;10438551;28;20219;-79
2022/03/02 03:47:40;;;;;;;176.17;71.20;;;-2.60;99.90;;;;;;10442884;28;20215;-77
2022/03/02 03:53:02;;;;;;;179.43;75.63;;;-2.70;99.90;;;;;;10441891;28;20210;-78
2022/03/02 03:58:44;;;;;;;172.63;73.80;;;-2.80;99.90;;;;;;10441432;28;20226;-78
2022/03/02 04:04:06;;;;;;;183.50;78.00;;;-2.80;99.90;;;;;;10442236;28;20540;-78
2022/03/02 04:09:28;;;;;;;180.40;78.50;;;-2.80;99.90;;;;;;10440911;28;20203;-77
2022/03/02 04:15:10;;;;;;;199.10;81.13;;;-2.80;99.90;;;;;;10432452;28;20246;-78
2022/03/02 04:20:52;;;;;;;204.33;84.03;;;-2.90;99.90;;;;;;10424417;28;20408;-78
2022/03/02 04:26:14;;;;;;;227.10;96.80;;;-2.80;99.90;;;;;;10441303;28;20202;-75
2022/03/02 04:31:55;;;;;;;226.77;94.07;;;-2.90;99.90;;;;;;10440813;28;20245;-77
2022/03/02 04:37:37;;;;;;;208.83;92.87;;;-2.90;99.90;;;;;;10440700;28;20230;-78
2022/03/02 04:43:19;;;;;;;218.00;93.20;;;-3.00;99.90;;;;;;10445406;28;20201;-77
2022/03/02 04:48:56;;;;;;;222.27;93.13;;;-3.10;99.90;;;;;;10479563;28;20194;-77
2022/03/02 05:00:37;;;;;;;220.50;96.33;;;-3.10;99.90;;;;;;10439141;28;20213;-77
2022/03/02 05:06:18;;;;;;;211.60;92.70;;;-3.20;99.90;;;;;;10427827;28;20253;-77
2022/03/02 05:11:40;;;;;;;221.23;94.40;;;-3.20;99.90;;;;;;10424432;28;20498;-78
2022/03/02 05:17:21;;;;;;;216.40;92.23;;;-3.30;99.90;;;;;;10438309;28;20237;-81
2022/03/02 05:23:03;;;;;;;220.33;93.60;;;-3.30;99.90;;;;;;10403737;28;20269;-81
2022/03/02 05:28:44;;;;;;;209.40;92.37;;;-3.30;99.90;;;;;;10403422;28;20215;-78
2022/03/02 05:34:06;;;;;;;195.97;85.63;;;-3.30;99.90;;;;;;10437838;28;20234;-79
2022/03/02 05:39:47;;;;;;;205.03;90.70;;;-3.30;99.90;;;;;;10438567;28;20216;-81
2022/03/02 05:45:28;;;;;;;193.10;88.13;;;-3.20;99.90;;;;;;10438053;28;20509;-80
2022/03/02 05:50:50;;;;;;;213.17;92.23;;;-3.20;99.90;;;;;;10438212;28;20195;-82
2022/03/02 05:56:12;;;;;;;208.00;89.33;;;-3.10;99.90;;;;;;10436469;28;20412;-79
2022/03/02 06:01:53;;;;;;;209.77;87.03;;;-3.10;99.90;;;;;;10437776;28;20416;-79
2022/03/02 06:07:15;;;;;;;199.67;87.23;;;-3.10;99.90;;;;;;10436297;28;20194;-82
2022/03/02 06:12:57;;;;;;;222.93;105.83;;;-3.00;99.90;;;;;;10436368;28;20385;-79
2022/03/02 06:18:38;;;;;;;277.17;125.80;;;-2.90;99.90;;;;;;10418133;28;20267;-77
2022/03/02 06:24:20;;;;;;;290.40;130.97;;;-2.90;99.90;;;;;;10417405;28;20217;-77
2022/03/02 06:29:42;;;;;;;282.07;126.77;;;-2.80;99.90;;;;;;10395183;28;20206;-79
2022/03/02 06:35:24;;;;;;;282.33;126.40;;;-2.60;99.90;;;;;;10395297;28;20304;-81
2022/03/02 06:40:52;;;;;;;285.20;126.90;;;-2.30;99.90;;;;;;10395666;28;20200;-80
2022/03/02 06:46:37;;;;;;;276.60;124.27;;;-2.00;99.90;;;;;;10426251;28;20465;-79
2022/03/02 06:52:19;;;;;;;250.80;112.93;;;-1.70;99.90;;;;;;10435993;28;20201;-80
2022/03/02 06:57:46;;;;;;;321.37;138.83;;;-0.30;99.90;;;;;;10421042;28;20224;-77
2022/03/02 07:03:11;;;;;;;333.33;142.90;;;1.10;99.90;;;;;;10436179;28;20486;-79
2022/03/02 07:08:53;;;;;;;326.03;143.40;;;2.10;99.90;;;;;;10435285;28;20218;-80
2022/03/02 07:14:32;;;;;;;308.07;139.60;;;2.80;99.90;;;;;;10435914;28;20223;-78
2022/03/02 07:19:54;;;;;;;284.53;132.47;;;3.40;99.90;;;;;;10422961;28;20207;-78
2022/03/02 07:25:21;;;;;;;253.30;118.93;;;4.00;99.90;;;;;;10434640;28;20203;-82
2022/03/02 07:30:45;;;;;;;254.13;120.73;;;4.70;99.90;;;;;;10402426;28;20221;-80
2022/03/02 07:36:10;;;;;;;239.10;120.63;;;6.00;99.60;;;;;;10401693;28;20307;-81
2022/03/02 07:41:51;;;;;;;258.07;124.73;;;6.50;96.70;;;;;;10402092;28;20204;-82
2022/03/02 07:47:14;;;;;;;222.90;116.88;;;6.90;94.40;;;;;;10434155;28;20263;-78
2022/03/02 07:52:58;;;;;;;232.45;118.97;;;;;;;;;;10435529;28;20277;-77
2022/03/02 07:58:21;;;;;;;283.65;147.85;;;8.20;83.10;;;;;;10441394;28;20298;-82
2022/03/02 08:03:44;;;;;;;299.45;153.23;;;8.80;80.40;;;;;;10441834;28;20609;-77
2022/03/02 08:09:10;;;;;;;305.35;162.90;;;9.50;68.40;;;;;;10441014;28;20199;-78
2022/03/02 08:14:33;;;;;;;265.75;147.65;;;10.00;58.50;;;;;;10444592;28;20229;-79
2022/03/02 08:19:56;;;;;;;210.35;113.75;;;10.20;58.60;;;;;;10421588;28;20306;-79
2022/03/02 08:25:23;;;;;;;164.55;99.13;;;10.80;56.60;;;;;;10439765;28;20506;-81
2022/03/02 08:30:49;;;;;;;103.68;58.85;;;11.60;49.30;;;;;;10422864;28;20192;-80
2022/03/02 08:36:11;;;;;;;55.28;34.05;;;12.60;43.10;;;;;;10420163;28;20530;-79
2022/03/02 08:41:35;;;;;;;40.65;21.10;;;13.30;36.10;;;;;;10420780;28;20255;-78
2022/03/02 08:46:57;;;;;;;27.05;18.10;;;14.00;31.10;;;;;;10436031;28;20495;-80
2022/03/02 08:52:26;;;;;;;32.42;19.50;;;14.20;29.30;;;;;;10433575;28;20200;-77
2022/03/02 08:57:49;;;;;;;36.95;20.45;;;14.50;28.10;;;;;;10431890;28;20231;-78
2022/03/02 09:03:36;;;;;;;31.00;18.45;;;14.80;26.60;;;;;;10434555;28;20266;-77
2022/03/02 09:08:58;;;;;;;25.77;16.42;;;15.00;26.60;;;;;;10408798;28;20442;-79
2022/03/02 09:14:39;;;;;;;24.67;14.93;;;15.20;25.70;;;;;;10409276;28;20296;-77
2022/03/02 09:20:21;;;;;;;35.72;17.15;;;15.30;24.40;;;;;;10416441;28;20224;-83
2022/03/02 09:25:46;;;;;;;31.60;19.95;;;15.50;24.30;;;;;;10406054;28;20213;-77
2022/03/02 09:31:09;;;;;;;27.88;15.27;;;15.30;24.10;;;;;;10415054;28;20552;-76
2022/03/02 09:36:37;;;;;;;22.45;14.63;;;14.00;24.60;;;;;;10377884;28;20242;-75
2022/03/02 09:42:27;;;;;;;21.42;13.07;;;13.60;25.50;;;;;;10403870;28;20266;-76
2022/03/02 09:48:22;;;;;;;19.23;11.88;;;14.70;24.50;;;;;;10390448;28;20208;-75
2022/03/02 09:53:48;;;;;;;20.70;12.38;;;15.50;23.60;;;;;;10392930;28;20221;-76
2022/03/02 09:59:10;;;;;;;18.05;11.68;;;15.60;22.60;;;;;;10383132;28;20208;-75
2022/03/02 10:04:56;;;;;;;16.08;10.57;;;15.90;22.20;;;;;;10429830;28;20243;-76
2022/03/02 10:10:40;;;;;;;24.27;12.90;;;16.30;21.20;;;;;;10381677;28;20286;-85
2022/03/02 10:16:04;;;;;;;16.05;11.60;;;16.50;20.30;;;;;;10412737;28;20279;-77
2022/03/02 10:22:04;;;;;;;15.48;10.85;;;16.60;20.50;;;;;;11305768;23;20203;-86
2022/03/02 10:27:51;;;;;;;16.50;11.10;;;16.80;19.40;;;;;;10244557;28;20236;-81
2022/03/02 10:33:16;;;;;;;19.05;12.68;;;16.90;18.90;;;;;;10251710;28;20214;-79
2022/03/02 10:38:47;;;;;;;14.80;10.27;;;16.90;18.70;;;;;;10255299;29;20293;-79
2022/03/02 10:44:40;;;;;;;21.35;13.10;;;17.10;18.00;;;;;;10267607;29;20211;-78
2022/03/02 10:50:23;;;;;;;22.17;12.90;;;17.50;18.40;;;;;;10273000;28;20222;-82
2022/03/02 10:56:08;;;;;;;17.50;11.23;;;17.60;17.80;;;;;;10286743;28;20242;-78
2022/03/02 11:01:30;;;;;;;20.92;10.50;;;17.50;17.20;;;;;;10276365;29;20210;-79
2022/03/02 11:06:53;;;;;;;17.70;10.57;;;16.90;16.60;;;;;;10273664;28;20231;-79
2022/03/02 11:12:47;;;;;;;26.83;14.07;;;17.70;16.20;;;;;;10264661;29;20283;-79
2022/03/02 11:18:09;;;;;;;18.38;10.85;;;18.00;16.20;;;;;;10262765;28;20291;-79
2022/03/02 11:23:51;;;;;;;21.08;11.00;;;18.20;16.20;;;;;;10274095;28;20282;-79
2022/03/02 11:29:33;;;;;;;13.60;8.93;;;18.10;15.70;;;;;;10287120;28;20269;-79
2022/03/02 11:35:18;;;;;;;13.93;9.43;;;17.60;16.10;;;;;;10276792;28;20286;-80
2022/03/02 11:40:44;;;;;;;16.92;11.27;;;17.70;15.90;;;;;;10278696;28;20203;-80
2022/03/02 11:46:09;;;;;;;15.52;8.68;;;16.40;16.90;;;;;;10278218;28;20210;-81
2022/03/02 11:51:31;;;;;;;13.70;9.40;;;15.60;16.90;;;;;;10276257;28;20220;-80
2022/03/02 11:57:01;;;;;;;16.10;9.05;;;15.10;18.00;;;;;;10277292;28;20308;-79
2022/03/02 12:02:23;;;;;;;16.27;8.10;;;15.20;17.40;;;;;;10276101;28;20213;-79
2022/03/02 12:07:47;;;;;;;15.40;8.30;;;14.80;18.00;;;;;;10273925;29;20220;-80
2022/03/02 12:13:29;;;;;;;11.90;7.47;;;14.50;18.00;;;;;;10274851;28;20217;-78
2022/03/02 12:18:54;;;;;;;29.83;11.48;;;14.20;16.60;;;;;;10287261;28;20267;-78
2022/03/02 12:24:26;;;;;;;23.02;10.70;;;13.60;16.50;;;;;;10269149;28;20251;-80
2022/03/02 12:30:10;;;;;;;16.67;8.07;;;12.70;17.30;;;;;;10273453;29;20210;-78
2022/03/02 12:35:33;;;;;;;16.77;9.60;;;11.90;18.40;;;;;;10262639;28;20233;-80
2022/03/02 12:40:55;;;;;;;14.13;8.40;;;11.20;19.10;;;;;;10275379;28;20230;-80
2022/03/02 12:46:38;;;;;;;17.93;11.40;;;10.80;20.40;;;;;;10274716;28;20516;-77
2022/03/02 12:52:02;;;;;;;22.47;12.57;;;10.90;21.70;;;;;;10274453;28;20211;-80
2022/03/02 12:57:27;;;;;;;17.13;11.50;;;11.00;21.70;;;;;;10251940;28;20537;-78
2022/03/02 13:03:10;;;;;;;19.17;11.13;;;11.00;22.00;;;;;;10237969;29;20270;-79
2022/03/02 13:08:41;;;;;;;21.07;13.47;;;12.00;22.70;;;;;;10288124;28;20221;-78
2022/03/02 13:14:03;;;;;;;16.55;9.57;;;13.70;20.90;;;;;;10261241;28;20209;-79
2022/03/02 13:19:26;;;;;;;15.98;9.82;;;14.70;18.90;;;;;;10271157;28;20259;-79
2022/03/02 13:25:10;;;;;;;21.17;10.05;;;14.90;18.30;;;;;;10270342;28;20284;-89
2022/03/02 13:31:17;;;;;;;21.42;10.95;;;15.00;17.60;;;;;;10229901;28;20204;-82
2022/03/02 13:37:00;;;;;;;19.83;10.38;;;14.80;18.00;;;;;;10272668;28;20273;-82
2022/03/02 13:42:24;;;;;;;16.58;8.80;;;15.10;17.30;;;;;;10241805;28;20283;-88
2022/03/02 13:47:46;;;;;;;12.40;8.73;;;15.50;17.20;;;;;;10251270;28;20271;-82
2022/03/02 13:53:33;;;;;;;16.98;9.30;;;15.50;16.60;;;;;;10264149;28;20219;-79
2022/03/02 13:59:00;;;;;;;12.80;8.68;;;15.50;16.90;;;;;;10269457;29;20241;-79
2022/03/02 14:04:23;;;;;;;15.68;8.60;;;15.10;17.40;;;;;;10270077;28;20223;-82
2022/03/02 14:10:08;;;;;;;14.77;8.57;;;14.60;18.00;;;;;;10270407;29;20251;-83
2022/03/02 14:15:34;;;;;;;13.43;8.50;;;14.50;17.50;;;;;;10282642;28;20250;-79
2022/03/02 14:20:56;;;;;;;15.83;8.43;;;14.40;17.40;;;;;;10256436;29;20501;-79
2022/03/02 14:26:18;;;;;;;19.37;10.90;;;13.80;17.90;;;;;;10277775;28;20313;-81
2022/03/02 14:31:51;;;;;;;20.23;10.90;;;12.60;19.20;;;;;;10281626;28;20277;-78
2022/03/02 14:37:39;;;;;;;18.10;10.60;;;11.40;21.00;;;;;;10264638;28;20243;-81
2022/03/02 14:43:22;;;;;;;19.70;10.90;;;;;;;;;;10279122;28;20276;-81
2022/03/02 14:48:45;;;;;;;17.00;10.40;;;9.60;23.40;;;;;;10252252;29;20274;-79
2022/03/02 14:54:13;;;;;;;29.17;13.57;;;9.10;24.90;;;;;;10269175;28;20203;-79
2022/03/02 14:59:54;;;;;;;21.93;11.37;;;8.80;25.10;;;;;;10267909;29;20388;-81
2022/03/02 15:05:52;;;;;;;17.80;10.07;;;8.50;25.20;;;;;;10241497;29;20310;-78
2022/03/02 15:11:24;;;;;;;19.00;10.27;;;8.50;25.60;;;;;;10269618;28;20202;-81
2022/03/02 15:17:09;;;;;;;31.30;14.50;;;8.50;25.90;;;;;;10256632;28;20245;-81
2022/03/02 15:22:56;;;;;;;24.63;12.73;;;8.40;26.40;;;;;;10237244;29;20285;-82
2022/03/02 15:28:18;;;;;;;20.60;10.63;;;8.20;27.60;;;;;;10222938;29;20237;-80
2022/03/02 15:33:40;;;;;;;27.50;12.00;;;8.10;28.30;;;;;;10225285;29;20204;-81
2022/03/02 15:39:39;;;;;;;27.40;13.17;;;7.80;29.10;;;;;;10216857;28;20581;-80
2022/03/02 15:45:04;;;;;;;28.27;15.47;;;7.60;30.30;;;;;;10234553;28;20280;-79
2022/03/02 15:50:33;;;;;;;31.07;16.10;;;7.30;31.50;;;;;;10218932;29;20242;-80
2022/03/02 15:56:20;;;;;;;30.47;16.33;;;7.10;33.80;;;;;;10234041;29;20240;-82
2022/03/02 16:01:42;;;;;;;33.67;17.83;;;7.00;37.20;;;;;;10211925;29;20395;-84
2022/03/02 16:07:04;;;;;;;34.20;18.40;;;6.80;45.20;;;;;;10220402;29;20439;-82
2022/03/02 16:12:49;;;;;;;31.30;15.83;;;6.60;48.60;;;;;;10230947;28;20203;-82
2022/03/02 16:18:24;;;;;;;42.83;19.27;;;6.30;53.00;;;;;;10252201;29;20229;-78
2022/03/02 16:24:06;;;;;;;51.47;23.53;;;6.10;57.00;;;;;;10237274;29;20249;-79
2022/03/02 16:29:28;;;;;;;61.70;28.17;;;5.80;66.90;;;;;;10224729;29;20213;-79
2022/03/02 16:35:09;;;;;;;74.00;32.77;;;5.60;75.10;;;;;;10209861;29;20282;-78
2022/03/02 16:40:51;;;;;;;82.30;39.20;;;5.40;81.50;;;;;;10198986;29;20217;-79
2022/03/02 16:46:14;;;;;;;90.33;43.23;;;5.20;89.30;;;;;;10196588;29;20547;-79
2022/03/02 16:51:55;;;;;;;95.23;43.30;;;5.00;88.40;;;;;;10197129;29;20266;-79
2022/03/02 16:57:17;;;;;;;92.07;44.33;;;4.80;92.90;;;;;;10229756;29;20299;-79
2022/03/02 17:03:00;;;;;;;106.10;50.37;;;4.70;95.00;;;;;;10238560;29;20207;-79
2022/03/02 17:08:24;;;;;;;181.87;75.20;;;4.70;95.50;;;;;;10199159;29;20202;-80
2022/03/02 17:13:46;;;;;;;312.37;124.17;;;4.50;96.40;;;;;;10201162;29;20228;-79
2022/03/02 17:19:09;;;;;;;394.07;154.00;;;4.30;97.40;;;;;;10223504;29;20298;-79
2022/03/02 17:24:32;;;;;;;372.30;145.63;;;4.30;98.00;;;;;;10222860;29;20242;-79
2022/03/02 17:29:54;;;;;;;362.63;134.07;;;4.10;98.20;;;;;;10236046;29;20291;-79
2022/03/02 17:35:16;;;;;;;271.43;107.37;;;4.00;99.10;;;;;;10236138;29;20199;-78
2022/03/02 17:40:57;;;;;;;204.23;85.77;;;3.90;98.80;;;;;;10246954;29;20200;-79
2022/03/02 17:46:39;;;;;;;160.33;70.30;;;3.80;99.00;;;;;;10237183;29;20565;-79
2022/03/02 17:52:20;;;;;;;147.40;63.93;;;3.70;99.60;;;;;;10246217;29;20200;-79
2022/03/02 17:57:42;;;;;;;145.07;67.03;;;3.60;99.90;;;;;;10222493;29;20224;-79
2022/03/02 18:03:04;;;;;;;150.43;64.13;;;3.40;99.90;;;;;;10236046;29;20248;-79
2022/03/02 18:08:46;;;;;;;153.27;62.60;;;3.40;99.90;;;;;;10236158;29;20204;-79
2022/03/02 18:14:10;;;;;;;143.93;60.50;;;3.40;99.90;;;;;;10236249;29;20275;-79
2022/03/02 18:19:32;;;;;;;115.30;54.87;;;3.30;99.90;;;;;;10235962;29;20563;-80
2022/03/02 18:25:13;;;;;;;104.03;49.50;;;3.30;99.90;;;;;;10234997;29;20241;-79
2022/03/02 18:30:36;;;;;;;103.37;47.77;;;3.30;99.90;;;;;;10250054;29;20246;-79
2022/03/02 18:35:59;;;;;;;100.13;47.57;;;3.20;99.90;;;;;;10250167;29;20226;-79
2022/03/02 18:41:21;;;;;;;114.07;52.80;;;3.10;99.90;;;;;;10235244;29;20226;-79
2022/03/02 18:47:05;;;;;;;125.47;54.70;;;3.10;99.90;;;;;;10245547;29;20213;-80
2022/03/02 18:52:27;;;;;;;107.77;49.50;;;3.10;99.90;;;;;;10234050;29;20199;-79
2022/03/02 18:58:08;;;;;;;106.93;44.93;;;3.10;99.90;;;;;;10245321;29;20598;-79
2022/03/02 19:03:49;;;;;;;90.47;37.67;;;3.10;99.90;;;;;;10234527;29;20222;-79
2022/03/02 19:09:37;;;;;;;105.00;43.07;;;3.00;99.90;;;;;;10245158;29;20214;-79
2022/03/02 19:14:59;;;;;;;116.27;47.17;;;2.80;99.90;;;;;;10257449;29;20200;-79
2022/03/02 19:20:44;;;;;;;89.87;40.07;;;2.70;99.90;;;;;;10252093;29;20213;-79
2022/03/02 19:26:08;;;;;;;106.27;46.40;;;2.60;99.90;;;;;;10256250;29;20234;-79
2022/03/02 19:31:31;;;;;;;169.67;67.70;;;2.60;99.90;;;;;;10254025;29;20203;-79
2022/03/02 19:37:16;;;;;;;158.80;65.97;;;2.50;99.90;;;;;;10241885;29;20264;-79
2022/03/02 19:42:58;;;;;;;135.33;57.17;;;2.50;99.90;;;;;;10241367;29;20258;-79
2022/03/02 19:48:40;;;;;;;82.77;35.77;;;2.50;99.90;;;;;;10241253;29;20399;-79
2022/03/02 19:54:25;;;;;;;58.00;26.07;;;2.40;99.90;;;;;;10241025;29;20206;-79
2022/03/02 19:59:47;;;;;;;51.47;24.70;;;2.40;99.90;;;;;;10255891;29;20483;-79
2022/03/02 20:05:28;;;;;;;68.33;30.30;;;2.20;99.90;;;;;;10240565;29;20210;-78
2022/03/02 20:11:11;;;;;;;66.93;30.10;;;2.00;99.90;;;;;;10240340;29;20564;-79
2022/03/02 20:16:53;;;;;;;68.03;31.77;;;2.00;99.90;;;;;;10240245;29;20588;-79
2022/03/02 20:22:18;;;;;;;49.33;26.90;;;1.90;99.90;;;;;;10251669;29;20481;-80
2022/03/02 20:28:18;;;;;;;50.17;24.37;;;1.90;99.90;;;;;;10254173;29;20222;-78
2022/03/02 20:33:40;;;;;;;50.00;24.70;;;1.80;99.90;;;;;;10323884;28;20220;-78
2022/03/02 20:39:21;;;;;;;54.93;24.87;;;1.90;99.90;;;;;;10355710;28;20302;-78
2022/03/02 20:45:03;;;;;;;51.20;23.70;;;1.90;99.90;;;;;;10322789;28;20202;-78
2022/03/02 20:50:47;;;;;;;47.27;21.87;;;1.80;99.90;;;;;;10316803;28;20235;-78
2022/03/02 20:56:28;;;;;;;42.67;20.40;;;1.70;99.90;;;;;;10332540;28;20326;-79
2022/03/02 21:01:50;;;;;;;38.17;20.03;;;1.60;99.90;;;;;;10338934;28;20291;-79
2022/03/02 21:07:12;;;;;;;46.03;21.40;;;1.50;99.90;;;;;;10261370;28;20224;-79
2022/03/02 21:12:54;;;;;;;55.20;25.10;;;1.40;99.90;;;;;;10248219;29;20228;-78
2022/03/02 21:18:16;;;;;;;65.27;30.20;;;1.30;99.90;;;;;;10236360;29;20308;-79
2022/03/02 21:23:38;;;;;;;62.37;31.47;;;1.30;99.90;;;;;;10237574;29;20557;-79
2022/03/02 21:29:00;;;;;;;50.97;26.23;;;1.30;99.90;;;;;;10236819;29;20257;-79
2022/03/02 21:34:22;;;;;;;39.47;22.47;;;1.30;99.90;;;;;;10249318;29;20426;-78
2022/03/02 21:39:48;;;;;;;60.53;29.17;;;1.40;99.90;;;;;;10249785;29;20274;-78
2022/03/02 21:45:30;;;;;;;49.13;28.00;;;1.50;99.90;;;;;;10235882;29;20213;-79
2022/03/02 21:51:14;;;;;;;53.23;29.83;;;1.70;99.90;;;;;;10237011;29;20213;-79
2022/03/02 21:56:36;;;;;;;49.40;29.20;;;1.80;99.90;;;;;;10249026;29;20225;-78
2022/03/02 22:02:17;;;;;;;51.40;29.37;;;1.80;99.90;;;;;;10236356;29;20236;-78
2022/03/02 22:07:39;;;;;;;53.57;31.43;;;1.90;99.90;;;;;;10251022;29;20207;-78
2022/03/02 22:13:21;;;;;;;60.23;33.37;;;1.90;99.90;;;;;;10236181;29;20468;-79
2022/03/02 22:18:43;;;;;;;55.77;31.83;;;1.90;99.90;;;;;;10250670;29;20451;-78
2022/03/02 22:24:24;;;;;;;59.70;32.20;;;1.80;99.90;;;;;;10245396;29;20308;-79
2022/03/02 22:30:06;;;;;;;55.40;31.97;;;1.70;99.90;;;;;;10235157;29;20511;-78
2022/03/02 22:35:28;;;;;;;53.83;31.33;;;1.70;99.90;;;;;;10234815;29;20223;-78
2022/03/02 22:40:51;;;;;;;56.17;31.67;;;1.60;99.90;;;;;;10221737;29;20206;-78
2022/03/02 22:46:32;;;;;;;56.43;32.13;;;1.80;99.90;;;;;;10234943;29;20197;-79
2022/03/02 22:51:54;;;;;;;53.03;30.70;;;1.70;99.90;;;;;;10221228;29;20227;-80
2022/03/02 22:57:16;;;;;;;55.00;30.50;;;1.70;99.90;;;;;;10249860;29;20280;-79
2022/03/02 23:02:57;;;;;;;55.53;31.27;;;1.70;99.90;;;;;;10245394;29;20564;-79
2022/03/02 23:14:38;;;;;;;61.33;33.93;;;1.80;99.90;;;;;;10233881;29;20212;-79
2022/03/02 23:20:20;;;;;;;49.93;29.30;;;1.70;99.90;;;;;;10244443;29;20272;-79
2022/03/02 23:25:42;;;;;;;56.10;32.07;;;1.70;99.90;;;;;;10246308;29;20257;-78
2022/03/02 23:31:23;;;;;;;54.33;30.77;;;1.80;99.90;;;;;;10217801;29;20208;-79
2022/03/02 23:37:04;;;;;;;57.53;30.67;;;1.70;99.90;;;;;;10244257;29;20430;-78
2022/03/02 23:42:45;;;;;;;53.53;30.77;;;1.60;99.90;;;;;;10244211;29;20223;-79
2022/03/02 23:48:08;;;;;;;46.90;28.30;;;1.50;99.90;;;;;;10233310;29;20224;-79
2022/03/02 23:53:31;;;;;;;50.57;30.60;;;1.50;99.90;;;;;;10234473;29;20487;-78
2022/03/02 23:58:53;;;;;;;51.40;30.07;;;1.60;99.90;;;;;;10252266;28;20236;-79
